Share

Hewanorra, St. Lucia

Hewanorra International (TLPL) Elev 10 ft | 13.75 °N, 60.95 °W | Change Station

Current weather conditions updated 46 minutes ago

Mostly Cloudy
Mostly Cloudy
79 °F
Feels Like 79 °F
N
18
Wind Variable Wind from East
Sunrise 5:48 AM
Sunset 6:17 PM
Moon Waning Gibbous

Today is forecast to be Cooler than yesterday. Showers late tonight.

Pressure 29.98 in
Visibility 6.2 miles
Clouds Mostly Cloudy 1800 ft
Dew Point 72 °F
Humidity 78%
Rainfall 0.00 in
Snow Depth Not available.
UV 0 out of 16
Pollen Not available.
Air Quality Not available.
Flu Activity Not available.
METAR TLPL 180500Z 10016KT 9999 VCSH BKN018 26/22 Q1015 NOSIG

More Conditions Fewer Conditions

Pressure 29.98 in
Visibility 6.2 miles
Clouds Mostly Cloudy 1800 ft
Dew Point 72 °F
Humidity 78%
Rainfall 0.00 in
Snow Depth Not available.
UV 0 out of 16
Pollen Not available.
Air Quality Not available.
Flu Activity Not available.
METAR TLPL 180500Z 10016KT 9999 VCSH BKN018 26/22 Q1015 NOSIG

More Conditions Fewer Conditions

10-Day Forecast

Almanac

Astronomy

Apr. 18, 2014 Rise Set
Actual Time 5:48 AM AST 6:17 PM AST
Civil Twilight 5:27 AM AST 6:39 PM AST
Nautical Twilight 5:01 AM AST 7:04 PM AST
Astronomical Twilight 4:36 AM AST 7:30 PM AST
Moon 9:36 PM AST 8:27 AM AST
Length of Visible Light 13h 12m
Length of Day
12h 28m
Tomorrow will be 0m 44s longer.
Waning Gibbous, 90% of the Moon is Illuminated
Today
Waning Gibbous
Apr 22
Last Quarter
Apr 29
New
May 6
First Quarter
May 14
Full

Yesterday's Extremes

Country Highs Country Lows

Community

  • SUNRISE THROUGH THE TREES.
    SUNRISE THROUGH THE TREES.
  • Dog Wood Blossoms
    Dog Wood Blossoms
  • Morning Light
    Morning Light
  • New Day
    New Day
  • Lake Michigan Sunrise
    Lake Michigan Sunrise

WunderPhotos

Upload Photos

1,702,272 photos uploaded!

WunderBlogs® & News

Nearby

Snow Depth

Not available.

Coastal Water Temperatures

Place Temperature
No Stations Reporting

Earthquake Activity

City Distance Mag. Time & Date
No recent earthquake activity has been reported nearby.
Minimum magnitude displayed is 2.5.

Nearby Weather Stations

There are no personal weather stations in this area.

What do you think?

We're not finished. Please let us know what you like, what you don't like, and what you are still missing.